Time;durP1;ratioP1;P1;durP2;ratioP2;P2;SDS_P1;SDS_P2;PMS_P1;PMS_P2;Temp;Humidity;BMP_temperature;BMP_pressure;BME280_temperature;BME280_humidity;BME280_pressure;Samples;Min_cycle;Max_cycle;Signal;HPM_P1;HPM_P2
2023/10/11 00:02:09;;;;;;;14.05;5.30;;;;;;;16.15;71.36;98021.50;10460129;28;20149;-68
2023/10/11 00:07:32;;;;;;;10.50;4.20;;;;;;;16.14;71.08;98011.59;10418332;28;20113;-68
2023/10/11 00:12:58;;;;;;;10.10;4.83;;;;;;;16.13;71.07;98010.13;10431867;28;20065;-68
2023/10/11 00:18:24;;;;;;;15.10;4.60;;;;;;;16.11;70.96;97998.75;10432389;28;20069;-68
2023/10/11 00:23:48;;;;;;;15.50;5.20;;;;;;;16.12;70.91;98003.06;10417668;28;20041;-68
2023/10/11 00:29:11;;;;;;;10.52;4.00;;;;;;;16.12;70.68;98005.13;10418005;28;20037;-68
2023/10/11 00:34:34;;;;;;;11.18;4.07;;;;;;;16.05;70.44;97992.84;10416718;28;20045;-68
2023/10/11 00:39:54;;;;;;;9.27;4.05;;;;;;;15.93;70.85;97986.59;10403600;28;20132;-68
2023/10/11 00:45:17;;;;;;;11.10;4.00;;;;;;;15.80;70.86;97987.31;10416819;28;20061;-68
2023/10/11 00:50:37;;;;;;;10.48;3.83;;;;;;;15.68;70.94;97979.72;10416847;28;20048;-68
2023/10/11 00:55:59;;;;;;;14.20;4.35;;;;;;;15.58;71.12;97982.00;10416894;28;20073;-68
2023/10/11 01:01:22;;;;;;;10.25;3.53;;;;;;;15.50;70.99;97981.56;10402583;28;20106;-68
2023/10/11 01:06:44;;;;;;;14.57;4.30;;;;;;;15.46;70.86;97984.19;10415864;28;20050;-68
2023/10/11 01:12:05;;;;;;;10.85;3.80;;;;;;;15.39;70.93;97969.06;10415987;28;20049;-67
2023/10/11 01:17:26;;;;;;;13.52;4.10;;;;;;;15.42;70.58;97964.25;10401881;28;20069;-68
2023/10/11 01:22:48;;;;;;;11.88;4.22;;;;;;;15.49;70.23;97968.84;10404061;28;20114;-68
2023/10/11 01:28:09;;;;;;;10.98;3.88;;;;;;;15.54;69.83;97964.91;10373949;28;20061;-68
2023/10/11 01:33:30;;;;;;;9.48;4.32;;;;;;;15.59;69.45;97960.94;10395788;28;20526;-69
2023/10/11 01:38:50;;;;;;;9.88;4.13;;;;;;;15.63;69.15;97963.25;10382561;28;20041;-69
2023/10/11 01:44:11;;;;;;;12.25;3.85;;;;;;;15.63;68.50;97949.94;10364529;28;20049;-69
2023/10/11 01:49:39;;;;;;;18.60;4.18;;;;;;;15.70;68.07;97959.41;10352674;28;20045;-70
2023/10/11 01:54:59;;;;;;;11.90;4.30;;;;;;;15.73;67.41;97952.53;10362236;28;20511;-68
2023/10/11 02:00:24;;;;;;;12.73;4.45;;;;;;;15.80;66.46;97959.91;10374714;28;20066;-68
2023/10/11 02:05:48;;;;;;;13.38;3.90;;;;;;;15.80;66.31;97953.56;10385912;28;20480;-68
2023/10/11 02:11:09;;;;;;;17.17;4.35;;;;;;;15.83;65.23;97958.66;10359990;28;20041;-68
2023/10/11 02:16:32;;;;;;;11.00;4.00;;;;;;;15.83;65.31;97960.75;10359589;28;20057;-68
2023/10/11 02:21:55;;;;;;;9.88;4.50;;;;;;;15.80;64.98;97953.56;10374345;28;20081;-68
2023/10/11 02:27:17;;;;;;;13.63;4.43;;;;;;;15.77;64.62;97952.00;10364144;28;20539;-68
2023/10/11 02:32:41;;;;;;;14.43;5.18;;;;;;;15.69;64.32;97947.41;10381203;28;20514;-68
2023/10/11 02:38:03;;;;;;;17.80;4.63;;;;;;;15.65;64.49;97950.03;10381355;28;20066;-68
2023/10/11 02:43:25;;;;;;;14.07;4.20;;;;;;;15.56;64.32;97950.22;10387565;28;20124;-68
2023/10/11 02:48:46;;;;;;;11.38;3.97;;;;;;;15.45;64.62;97935.63;10408011;28;20120;-68
2023/10/11 02:54:14;;;;;;;14.32;4.38;;;;;;;15.37;64.56;97946.47;10421368;28;20388;-68
2023/10/11 02:59:35;;;;;;;10.43;4.57;;;;;;;15.36;64.74;97941.47;10439945;28;20075;-68
2023/10/11 03:04:56;;;;;;;11.88;4.68;;;;;;;15.39;64.42;97935.31;10415919;28;20068;-67
2023/10/11 03:10:18;;;;;;;12.95;4.60;;;;;;;15.41;64.01;97929.78;10389328;28;20057;-68
2023/10/11 03:15:39;;;;;;;12.07;4.78;;;;;;;15.47;63.59;97932.19;10398455;28;20062;-67
2023/10/11 03:21:09;;;;;;;17.50;4.40;;;;;;;15.41;63.87;97938.22;10383865;28;20053;-68
2023/10/11 03:26:43;;;;;;;11.38;4.25;;;;;;;15.29;63.80;97934.06;10398046;28;20480;-67
2023/10/11 03:33:02;;;;;;;13.98;4.70;;;;;;;15.12;64.20;97943.72;10391418;28;20042;-68
2023/10/11 03:38:33;;;;;;;11.65;4.30;;;;;;;14.92;64.39;97943.38;10400502;28;20038;-68
2023/10/11 03:43:54;;;;;;;15.52;5.45;;;;;;;14.79;65.10;97936.38;10396985;28;20511;-68
2023/10/11 03:54:41;;;;;;;;;;;;;;;14.61;65.93;97926.94;10396953;28;20120;-67
2023/10/11 04:05:42;;;;;;;12.55;4.80;;;;;;;14.46;66.57;97922.63;10410434;28;20057;-67
2023/10/11 04:11:14;;;;;;;13.95;4.57;;;;;;;14.40;66.40;97930.69;10383222;28;20062;-68
2023/10/11 04:16:35;;;;;;;12.35;4.50;;;;;;;14.33;67.14;97931.69;10398049;28;20163;-67
2023/10/11 04:21:57;;;;;;;16.65;4.93;;;;;;;14.34;66.86;97938.78;10388744;28;20065;-68
2023/10/11 04:32:45;;;;;;;14.57;4.13;;;;;;;14.29;67.42;97937.84;10397770;28;20109;-68
2023/10/11 04:38:10;;;;;;;16.88;4.47;;;;;;;14.30;67.31;97933.69;10397277;28;20516;-68
2023/10/11 04:43:40;;;;;;;14.55;4.82;;;;;;;14.28;67.43;97938.44;10408018;28;20444;-67
2023/10/11 04:49:18;;;;;;;12.48;4.65;;;;;;;14.23;67.77;97939.56;10382726;28;20444;-67
2023/10/11 04:54:53;;;;;;;10.65;3.97;;;;;;;14.19;68.38;97936.53;10376585;28;20056;-69
2023/10/11 05:00:18;;;;;;;12.68;4.30;;;;;;;14.16;68.39;97943.38;10375791;28;20112;-69
2023/10/11 05:05:58;;;;;;;12.88;4.35;;;;;;;14.17;68.73;97944.81;10388045;28;20083;-68
2023/10/11 05:11:32;;;;;;;11.15;3.60;;;;;;;14.14;68.40;97943.25;10385172;28;20053;-68
2023/10/11 05:16:59;;;;;;;15.82;4.78;;;;;;;14.15;68.74;97950.31;10383725;28;20048;-68
2023/10/11 05:27:56;;;;;;;16.10;4.57;;;;;;;14.42;69.26;97956.09;10413317;28;20062;-68
2023/10/11 05:50:54;;;;;;;12.55;5.10;;;;;;;17.44;65.96;97950.03;10391927;28;20061;-68
2023/10/11 05:56:22;;;;;;;11.60;4.97;;;;;;;19.66;64.14;97949.63;10410428;28;20068;-68
2023/10/11 06:01:47;;;;;;;14.07;5.05;;;;;;;22.10;60.30;97940.06;10410719;28;20069;-65
2023/10/11 06:07:11;;;;;;;16.35;5.07;;;;;;;23.89;55.59;97946.81;10411420;28;20492;-69
2023/10/11 06:12:33;;;;;;;12.98;4.50;;;;;;;25.85;52.80;97958.97;10414331;28;20113;-68
2023/10/11 06:17:55;;;;;;;13.38;5.53;;;;;;;26.48;45.67;97959.56;10413965;28;20519;-68
2023/10/11 06:23:15;;;;;;;15.88;4.63;;;;;;;26.60;45.83;97961.09;10422684;28;20125;-69
2023/10/11 06:28:36;;;;;;;13.35;4.72;;;;;;;29.04;36.66;97965.41;10442097;28;20053;-72
2023/10/11 06:33:59;;;;;;;15.70;5.55;;;;;;;30.44;33.41;97958.25;10413570;28;20112;-72
2023/10/11 06:45:05;;;;;;;18.73;6.00;;;;;;;31.14;30.02;97958.34;10414192;28;20042;-72
2023/10/11 06:50:26;;;;;;;11.70;4.10;;;;;;;31.36;29.12;97957.38;10409006;28;20113;-72
2023/10/11 06:55:50;;;;;;;11.97;4.50;;;;;;;31.43;28.06;97955.16;10432561;28;20049;-72
2023/10/11 07:01:13;;;;;;;15.35;4.35;;;;;;;28.75;29.38;97949.63;10454337;28;20064;-72
2023/10/11 07:06:35;;;;;;;11.32;4.00;;;;;;;27.15;32.02;97941.41;10374174;28;20138;-72
2023/10/11 07:17:38;;;;;;;13.00;4.00;;;;;;;24.74;35.90;97938.25;10377425;28;20499;-71
2023/10/11 07:22:59;;;;;;;12.70;4.32;;;;;;;27.51;35.60;97947.31;10374690;28;20093;-71
2023/10/11 07:28:35;;;;;;;11.95;4.35;;;;;;;28.07;31.38;97940.28;10374680;28;20117;-71
2023/10/11 07:33:56;;;;;;;12.48;3.78;;;;;;;25.47;34.53;97935.63;10375113;28;20045;-71
2023/10/11 07:44:50;;;;;;;13.60;4.35;;;;;;;36.75;24.11;97950.31;10378641;28;20125;-72
2023/10/11 07:50:14;;;;;;;15.90;4.38;;;;;;;38.07;20.65;97942.59;10391229;28;20098;-72
2023/10/11 07:55:38;;;;;;;18.65;3.90;;;;;;;34.39;21.99;97954.94;10378869;28;20104;-72
2023/10/11 08:01:15;;;;;;;12.45;4.35;;;;;;;30.45;25.80;97944.59;10378993;28;20121;-71
2023/10/11 08:06:39;;;;;;;10.85;4.18;;;;;;;34.48;24.07;97940.97;10378058;28;20121;-72
2023/10/11 08:12:00;;;;;;;11.07;3.95;;;;;;;35.22;22.75;97946.25;10378479;28;20122;-72
2023/10/11 08:17:21;;;;;;;11.60;4.00;;;;;;;40.61;18.78;97947.34;10363433;28;20124;-74
2023/10/11 08:22:41;;;;;;;13.13;4.03;;;;;;;34.80;20.30;97944.50;10376968;28;20124;-72
2023/10/11 08:28:12;;;;;;;9.98;3.20;;;;;;;29.87;25.85;97947.13;10376835;28;20125;-71
2023/10/11 08:33:33;;;;;;;14.90;4.20;;;;;;;26.64;30.29;97927.50;10377561;28;20125;-71
2023/10/11 08:38:55;;;;;;;18.53;4.00;;;;;;;27.14;32.13;97931.41;10376474;28;20126;-72
2023/10/11 08:44:20;;;;;;;9.23;3.80;;;;;;;33.99;25.96;97932.72;10376105;28;20125;-74
2023/10/11 08:49:41;;;;;;;16.75;4.20;;;;;;;39.44;19.74;97940.44;10375964;28;20117;-74
2023/10/11 08:55:06;;;;;;;10.38;3.72;;;;;;;42.86;14.85;97937.25;10375935;28;20483;-75
2023/10/11 09:00:31;;;;;;;11.95;3.83;;;;;;;45.61;13.05;97936.25;10375464;28;20152;-75
2023/10/11 09:06:01;;;;;;;11.23;3.15;;;;;;;46.81;12.26;97915.59;10376356;28;20479;-75
2023/10/11 09:11:34;;;;;;;8.70;3.37;;;;;;;48.14;10.72;97929.44;10376228;28;20041;-74
2023/10/11 09:17:02;;;;;;;9.25;2.90;;;;;;;44.37;12.26;97921.19;10387279;28;20053;-75
2023/10/11 09:22:23;;;;;;;11.55;3.75;;;;;;;44.44;13.02;97917.03;10374933;28;20046;-75
2023/10/11 09:27:50;;;;;;;8.63;3.20;;;;;;;46.00;11.86;97918.72;10388321;28;20069;-75
2023/10/11 09:33:17;;;;;;;7.53;3.10;;;;;;;47.27;10.70;97908.31;10374509;28;20061;-76
2023/10/11 09:38:41;;;;;;;10.35;3.08;;;;;;;48.13;10.22;97922.13;10374246;28;20096;-74
2023/10/11 09:44:02;;;;;;;7.93;2.65;;;;;;;48.16;9.33;97917.44;10387632;28;20049;-75
2023/10/11 09:49:25;;;;;;;7.43;2.60;;;;;;;48.78;9.46;97922.63;10373905;28;20113;-75
2023/10/11 09:54:50;;;;;;;8.73;2.97;;;;;;;50.41;8.95;97931.97;10360306;28;20045;-74
2023/10/11 10:00:16;;;;;;;10.03;3.30;;;;;;;50.42;8.50;97926.72;10374681;28;20046;-74
2023/10/11 10:06:10;;;;;;;8.57;2.63;;;;;;;50.42;8.44;97927.44;10373297;28;20129;-75
2023/10/11 10:12:11;;;;;;;4.93;2.25;;;;;;;50.24;7.73;97905.34;10373432;28;20069;-75
2023/10/11 10:17:32;;;;;;;9.25;2.63;;;;;;;48.76;7.98;97916.88;10374239;28;20133;-75
2023/10/11 10:23:14;;;;;;;6.35;2.50;;;;;;;48.75;8.91;97912.53;10373093;28;20077;-74
2023/10/11 10:28:35;;;;;;;4.45;1.75;;;;;;;48.67;8.21;97919.13;10372910;28;20096;-74
2023/10/11 10:34:13;;;;;;;6.07;2.28;;;;;;;47.12;8.46;97904.38;10374148;28;20045;-75
2023/10/11 10:39:46;;;;;;;7.43;2.47;;;;;;;46.38;8.86;97882.69;10373780;28;20046;-74
2023/10/11 10:45:07;;;;;;;4.07;1.95;;;;;;;45.88;9.17;97881.97;10372768;28;20055;-74
2023/10/11 10:50:28;;;;;;;9.50;2.70;;;;;;;46.42;9.15;97891.22;10380363;28;20062;-76
2023/10/11 10:55:49;;;;;;;8.50;1.98;;;;;;;45.54;9.01;97888.81;10381546;28;20050;-76
2023/10/11 11:01:10;;;;;;;5.97;2.00;;;;;;;44.47;9.90;97885.91;10393719;28;20384;-73
2023/10/11 11:06:38;;;;;;;7.70;2.22;;;;;;;44.47;10.09;97899.91;10379752;28;20080;-75
2023/10/11 11:12:18;;;;;;;9.95;2.40;;;;;;;44.95;9.55;97889.34;10393504;28;20120;-75
2023/10/11 11:17:46;;;;;;;5.78;2.10;;;;;;;45.10;9.67;97887.50;10380625;28;20133;-74
2023/10/11 11:23:07;;;;;;;7.53;2.40;;;;;;;45.44;9.23;97882.97;10379558;28;20042;-73
2023/10/11 11:28:29;;;;;;;5.95;2.17;;;;;;;43.16;10.02;97866.47;10392975;28;20038;-75
2023/10/11 11:34:05;;;;;;;7.20;2.70;;;;;;;43.19;10.06;97853.06;10392553;28;20046;-74
2023/10/11 11:44:56;;;;;;;10.50;2.10;;;;;;;38.48;12.63;97844.03;10379573;28;20117;-74
2023/10/11 11:50:20;;;;;;;8.30;2.47;;;;;;;35.23;15.57;97843.28;10378386;28;20104;-74
2023/10/11 11:55:41;;;;;;;7.40;2.95;;;;;;;33.70;17.14;97837.81;10377978;28;20053;-73
2023/10/11 12:01:08;;;;;;;9.07;2.95;;;;;;;32.27;18.85;97824.78;10377840;28;20084;-73
2023/10/11 12:06:34;;;;;;;6.95;2.75;;;;;;;32.21;19.15;97813.34;10378144;28;20053;-73
2023/10/11 12:11:56;;;;;;;7.28;2.72;;;;;;;32.37;19.63;97798.63;10390742;28;20042;-73
2023/10/11 12:17:17;;;;;;;;;;;;;;;31.87;19.89;97795.88;10378542;28;20046;-73
2023/10/11 12:22:44;;;;;;;11.93;2.57;;;;;;;31.14;20.90;97805.56;10376852;28;19921;-71
2023/10/11 12:28:06;;;;;;;9.10;3.30;;;;;;;31.23;21.52;97803.31;10376885;28;20038;-73
2023/10/11 12:33:30;;;;;;;6.53;2.80;;;;;;;30.40;21.44;97791.31;10362775;28;20068;-71
2023/10/11 12:38:52;;;;;;;10.30;3.10;;;;;;;30.10;22.17;97800.22;10376303;28;20068;-71
2023/10/11 12:44:14;;;;;;;8.23;2.77;;;;;;;29.81;23.23;97802.59;10362667;28;20096;-72
2023/10/11 12:49:35;;;;;;;9.50;2.70;;;;;;;29.68;23.58;97799.09;10376018;28;20045;-72
2023/10/11 12:54:57;;;;;;;9.13;2.90;;;;;;;29.41;23.66;97795.66;10375556;28;20042;-71
2023/10/11 13:00:31;;;;;;;12.93;2.80;;;;;;;29.20;23.47;97797.25;10375317;28;20045;-71
2023/10/11 13:05:57;;;;;;;8.38;2.65;;;;;;;29.28;23.73;97783.53;10375684;28;20458;-71
2023/10/11 13:11:21;;;;;;;10.47;3.07;;;;;;;29.23;23.77;97779.25;10374610;28;20074;-71
2023/10/11 13:16:42;;;;;;;8.13;2.90;;;;;;;29.12;23.80;97780.03;10388226;28;20352;-71
2023/10/11 13:22:09;;;;;;;10.20;2.60;;;;;;;28.79;23.80;97789.50;10388079;28;20104;-71
2023/10/11 13:27:30;;;;;;;8.30;2.55;;;;;;;28.40;24.58;97796.81;10387692;28;20046;-72
2023/10/11 13:32:51;;;;;;;7.25;2.80;;;;;;;28.22;25.12;97780.31;10374240;28;20042;-71
2023/10/11 13:38:16;;;;;;;10.82;3.40;;;;;;;27.95;25.45;97774.63;10373871;28;20511;-71
2023/10/11 13:43:38;;;;;;;12.98;2.70;;;;;;;27.67;25.98;97766.03;10374038;28;20069;-70
2023/10/11 13:49:09;;;;;;;7.28;2.63;;;;;;;27.48;26.48;97771.00;10373951;28;20125;-71
2023/10/11 13:54:42;;;;;;;11.13;3.17;;;;;;;27.43;26.41;97775.31;10362052;28;20046;-71
2023/10/11 14:05:46;;;;;;;8.27;2.75;;;;;;;27.16;27.20;97756.63;10374531;28;20065;-71
2023/10/11 14:11:07;;;;;;;9.32;2.80;;;;;;;26.89;28.18;97750.09;10373484;28;20125;-72
2023/10/11 14:16:30;;;;;;;10.32;2.75;;;;;;;26.79;28.68;97750.78;10373299;28;20049;-72
2023/10/11 14:21:51;;;;;;;8.10;3.08;;;;;;;26.56;29.01;97758.56;10376949;28;20120;-71
2023/10/11 14:27:13;;;;;;;12.20;2.80;;;;;;;26.27;29.80;97743.38;10382373;28;20042;-71
2023/10/11 14:32:34;;;;;;;11.90;2.90;;;;;;;26.04;29.88;97739.66;10382222;28;20092;-72
2023/10/11 14:37:59;;;;;;;9.90;3.07;;;;;;;25.95;30.44;97727.44;10381006;28;20045;-71
2023/10/11 14:43:23;;;;;;;11.40;2.83;;;;;;;25.96;30.05;97733.88;10381973;28;20041;-71
2023/10/11 14:48:49;;;;;;;18.10;3.03;;;;;;;25.62;30.84;97732.19;10394311;28;20038;-71
2023/10/11 14:54:12;;;;;;;11.70;2.42;;;;;;;25.53;30.60;97735.69;10366878;28;20069;-71
2023/10/11 14:59:35;;;;;;;7.88;2.72;;;;;;;25.31;30.89;97739.78;10380178;28;20121;-71
2023/10/11 15:04:57;;;;;;;12.35;2.90;;;;;;;25.05;31.68;97742.38;10379600;28;20068;-71
2023/10/11 15:10:23;;;;;;;15.10;2.85;;;;;;;24.90;31.94;97746.47;10393117;28;20116;-72
2023/10/11 15:15:44;;;;;;;14.57;3.10;;;;;;;24.76;32.38;97729.91;10366343;28;20053;-71
2023/10/11 15:21:05;;;;;;;14.55;3.05;;;;;;;24.57;32.56;97731.09;10379398;28;20248;-71
2023/10/11 15:26:26;;;;;;;13.00;3.15;;;;;;;24.34;33.14;97724.41;10378622;28;20124;-71
2023/10/11 15:31:49;;;;;;;9.02;2.83;;;;;;;24.03;33.62;97726.84;10392042;28;20562;-71
2023/10/11 15:37:10;;;;;;;11.73;3.38;;;;;;;23.69;34.30;97727.75;10392661;28;20125;-71
2023/10/11 15:42:32;;;;;;;8.77;2.97;;;;;;;23.39;34.96;97738.63;10378410;28;20165;-71
2023/10/11 15:47:53;;;;;;;14.10;3.63;;;;;;;23.16;35.43;97733.94;10391993;28;20124;-71
2023/10/11 15:53:14;;;;;;;10.05;2.97;;;;;;;22.90;35.99;97740.59;10379176;28;20135;-71
2023/10/11 15:58:34;;;;;;;9.23;2.88;;;;;;;22.65;36.32;97742.22;10378893;28;20092;-70
2023/10/11 16:03:55;;;;;;;15.52;3.17;;;;;;;22.42;36.72;97735.38;10378554;28;20172;-71
2023/10/11 16:09:17;;;;;;;8.88;2.90;;;;;;;22.16;37.46;97740.47;10391343;28;20474;-71
2023/10/11 16:14:40;;;;;;;9.10;2.75;;;;;;;21.91;37.52;97742.75;10363881;28;20121;-70
2023/10/11 16:20:05;;;;;;;9.55;2.80;;;;;;;21.71;38.09;97745.84;10377145;28;20042;-71
2023/10/11 16:25:25;;;;;;;10.05;2.75;;;;;;;21.50;38.62;97737.50;10376685;28;20038;-71
2023/10/11 16:30:46;;;;;;;15.93;3.28;;;;;;;21.29;39.30;97744.78;10390590;28;20038;-71
2023/10/11 16:36:08;;;;;;;17.20;3.38;;;;;;;21.09;39.79;97744.97;10390516;28;20053;-71
2023/10/11 16:41:29;;;;;;;12.65;3.38;;;;;;;20.87;40.18;97742.28;10376206;28;20113;-71
2023/10/11 16:46:53;;;;;;;11.02;3.15;;;;;;;20.75;40.77;97742.66;10388508;28;20076;-71
2023/10/11 16:52:15;;;;;;;11.20;3.20;;;;;;;20.58;41.29;97740.75;10377135;28;20069;-71
2023/10/11 16:57:37;;;;;;;9.80;2.97;;;;;;;20.42;41.84;97737.44;10375752;28;20053;-70
2023/10/11 17:02:59;;;;;;;13.35;3.45;;;;;;;20.31;41.88;97733.59;10389049;28;20121;-71
2023/10/11 17:08:20;;;;;;;12.30;3.13;;;;;;;20.17;42.26;97744.50;10361592;28;20038;-71
2023/10/11 17:13:41;;;;;;;12.35;3.13;;;;;;;20.09;42.70;97745.00;10361503;28;20126;-71
2023/10/11 17:19:02;;;;;;;14.57;3.85;;;;;;;19.97;43.56;97736.09;10388537;28;20046;-71
2023/10/11 17:24:23;;;;;;;8.70;3.20;;;;;;;19.81;43.84;97741.28;10388579;28;20176;-71
2023/10/11 17:29:46;;;;;;;10.23;3.10;;;;;;;19.72;44.14;97734.63;10375700;28;20069;-71
2023/10/11 17:35:08;;;;;;;12.23;2.90;;;;;;;19.62;44.37;97740.72;10374364;28;20503;-70
2023/10/11 17:40:30;;;;;;;10.60;3.30;;;;;;;19.56;45.07;97729.19;10360932;28;20504;-71
2023/10/11 17:45:50;;;;;;;10.40;3.10;;;;;;;19.47;45.01;97743.69;10387949;28;20311;-71
2023/10/11 17:51:16;;;;;;;13.45;3.22;;;;;;;19.47;45.49;97733.09;10373757;28;20042;-71
2023/10/11 17:56:37;;;;;;;13.13;3.03;;;;;;;19.47;45.94;97724.59;10374457;28;20076;-71
2023/10/11 18:02:00;;;;;;;11.32;3.53;;;;;;;19.54;46.44;97734.75;10374771;28;20073;-70
2023/10/11 18:07:21;;;;;;;10.13;3.15;;;;;;;19.57;46.10;97733.44;10373350;28;20078;-71
2023/10/11 18:12:44;;;;;;;13.32;3.55;;;;;;;19.61;46.49;97730.75;10374587;28;20046;-71
2023/10/11 18:18:07;;;;;;;17.58;3.75;;;;;;;19.63;46.82;97727.28;10373490;28;20102;-71
2023/10/11 18:23:28;;;;;;;;;;;;;;;19.59;47.04;97727.88;10387419;28;20145;-71
2023/10/11 18:28:48;;;;;;;13.13;4.05;;;;;;;19.56;47.22;97725.63;10374246;28;19964;-71
2023/10/11 18:34:09;;;;;;;13.68;3.95;;;;;;;19.51;47.30;97718.38;10374299;28;20069;-71
2023/10/11 18:39:30;;;;;;;12.05;4.35;;;;;;;19.42;47.47;97717.38;10372965;28;20096;-71
2023/10/11 18:44:51;;;;;;;13.38;4.22;;;;;;;19.32;47.65;97705.72;10386916;28;20121;-71
2023/10/11 18:50:11;;;;;;;9.05;3.63;;;;;;;19.26;48.15;97708.34;10372767;28;20118;-71
2023/10/11 18:55:32;;;;;;;12.60;3.33;;;;;;;19.19;48.43;97718.75;10372833;28;20069;-71
2023/10/11 19:00:55;;;;;;;11.48;3.55;;;;;;;19.19;48.75;97712.34;10373613;28;20396;-71
2023/10/11 19:06:16;;;;;;;8.50;3.80;;;;;;;19.17;48.74;97710.19;10372330;28;20125;-72
2023/10/11 19:11:37;;;;;;;10.82;3.75;;;;;;;19.17;48.93;97705.25;10380143;28;20480;-71
2023/10/11 19:16:58;;;;;;;10.63;3.40;;;;;;;19.16;48.72;97717.94;10380800;28;20049;-71
2023/10/11 19:22:20;;;;;;;10.32;2.85;;;;;;;19.20;48.67;97713.81;10379818;28;20488;-72
2023/10/11 19:27:41;;;;;;;11.20;3.22;;;;;;;19.27;48.58;97712.63;10379385;28;20540;-71
2023/10/11 19:33:02;;;;;;;13.77;3.80;;;;;;;19.29;48.36;97716.25;10379270;28;20045;-71
2023/10/11 19:38:23;;;;;;;13.73;3.65;;;;;;;19.30;48.03;97714.13;10379934;28;20049;-72
2023/10/11 19:43:44;;;;;;;11.23;3.30;;;;;;;19.30;48.09;97706.41;10392678;28;20118;-71
2023/10/11 19:49:06;;;;;;;8.52;3.40;;;;;;;19.29;47.96;97709.88;10378598;28;20071;-72
2023/10/11 19:54:28;;;;;;;14.68;3.53;;;;;;;19.25;48.28;97698.41;10379391;28;20511;-71
2023/10/11 19:59:48;;;;;;;7.15;3.22;;;;;;;19.20;48.10;97696.81;10379344;28;20477;-72
2023/10/11 20:05:12;;;;;;;9.45;3.03;;;;;;;19.17;48.24;97688.28;10378514;28;20053;-71
2023/10/11 20:10:36;;;;;;;10.88;3.00;;;;;;;19.11;48.62;97699.41;10377795;28;20117;-71
2023/10/11 20:16:01;;;;;;;13.25;3.35;;;;;;;19.08;48.41;97688.66;10378601;28;20188;-72
2023/10/11 20:21:22;;;;;;;10.98;3.28;;;;;;;19.06;48.58;97686.50;10378159;28;20125;-71
2023/10/11 20:26:43;;;;;;;12.85;3.38;;;;;;;19.06;48.79;97688.59;10378337;28;20073;-72
2023/10/11 20:32:04;;;;;;;13.93;3.33;;;;;;;19.04;48.82;97685.72;10376860;28;20050;-71
2023/10/11 20:37:25;;;;;;;13.50;3.20;;;;;;;18.99;48.92;97695.44;10376957;28;20061;-72
2023/10/11 20:42:46;;;;;;;11.00;3.20;;;;;;;18.94;49.00;97688.94;10377490;28;20081;-72
2023/10/11 20:48:07;;;;;;;20.60;4.57;;;;;;;18.84;49.18;97697.06;10376481;28;20069;-71
2023/10/11 20:53:28;;;;;;;8.30;2.88;;;;;;;18.75;49.53;97696.06;10389814;28;20053;-72
2023/10/11 20:59:06;;;;;;;12.37;3.43;;;;;;;18.68;49.64;97696.50;10377017;28;20503;-71
2023/10/11 21:04:27;;;;;;;12.48;3.22;;;;;;;18.66;49.94;97683.03;10375930;28;20497;-71
2023/10/11 21:09:47;;;;;;;11.60;3.58;;;;;;;18.66;50.11;97683.03;10376333;28;20129;-71
2023/10/11 21:15:10;;;;;;;9.80;3.10;;;;;;;18.62;49.90;97685.66;10375484;28;20465;-71
2023/10/11 21:20:38;;;;;;;12.35;3.30;;;;;;;18.57;50.35;97676.31;10375105;28;20080;-71
2023/10/11 21:26:01;;;;;;;13.95;3.33;;;;;;;18.45;50.39;97670.25;10361689;28;20449;-71
2023/10/11 21:31:22;;;;;;;14.38;3.30;;;;;;;18.33;50.65;97680.38;10374234;28;20045;-70
2023/10/11 21:36:43;;;;;;;10.85;3.10;;;;;;;18.21;50.98;97670.09;10374391;28;20451;-70
2023/10/11 21:42:05;;;;;;;8.98;3.30;;;;;;;18.14;51.57;97662.03;10375540;28;20468;-70
2023/10/11 21:47:26;;;;;;;9.85;3.55;;;;;;;18.02;52.08;97665.16;10375074;28;20038;-71
2023/10/11 21:52:49;;;;;;;11.40;3.47;;;;;;;17.91;52.10;97657.69;10374179;28;20117;-71
2023/10/11 21:58:10;;;;;;;9.52;3.20;;;;;;;17.78;52.42;97667.78;10360141;28;20121;-71
2023/10/11 22:03:31;;;;;;;13.70;3.10;;;;;;;17.68;52.83;97664.56;10387653;28;20150;-71
2023/10/11 22:08:52;;;;;;;15.43;3.58;;;;;;;17.61;53.06;97651.56;10373838;28;20072;-71
2023/10/11 22:14:15;;;;;;;11.52;3.20;;;;;;;17.55;52.76;97649.22;10373561;28;20444;-71
2023/10/11 22:19:37;;;;;;;10.02;2.88;;;;;;;17.55;53.47;97651.34;10374583;28;20133;-71
2023/10/11 22:24:58;;;;;;;10.73;3.42;;;;;;;17.58;53.78;97647.22;10374410;28;20124;-71
2023/10/11 22:30:19;;;;;;;9.85;3.03;;;;;;;17.49;53.91;97651.84;10373489;28;20460;-71
2023/10/11 22:35:44;;;;;;;11.93;3.50;;;;;;;17.42;54.13;97653.69;10360000;28;20464;-71
2023/10/11 22:41:05;;;;;;;17.20;3.55;;;;;;;17.33;54.47;97643.44;10388107;28;20180;-71
2023/10/11 22:46:25;;;;;;;11.82;3.20;;;;;;;17.27;54.77;97665.03;10382167;28;20156;-71
2023/10/11 22:51:46;;;;;;;13.50;3.08;;;;;;;17.20;54.96;97652.09;10394572;28;20184;-70
2023/10/11 22:57:10;;;;;;;8.57;3.30;;;;;;;17.13;54.90;97657.47;10380906;28;20117;-71
2023/10/11 23:02:34;;;;;;;9.52;3.85;;;;;;;17.08;55.15;97660.75;10381329;28;20072;-71
2023/10/11 23:07:55;;;;;;;14.20;3.35;;;;;;;17.01;55.41;97651.34;10380308;28;20049;-72
2023/10/11 23:13:17;;;;;;;8.77;3.10;;;;;;;16.97;55.41;97659.63;10380057;28;20140;-72
2023/10/11 23:18:43;;;;;;;8.23;2.65;;;;;;;16.93;55.58;97653.09;10380806;28;20120;-71
2023/10/11 23:24:09;;;;;;;7.97;3.13;;;;;;;16.86;55.70;97655.66;10379728;28;20045;-71
2023/10/11 23:29:39;;;;;;;13.25;3.13;;;;;;;16.79;56.18;97651.16;10379440;28;20038;-71
2023/10/11 23:35:11;;;;;;;9.88;3.10;;;;;;;16.75;56.33;97650.97;10379434;28;20070;-71
2023/10/11 23:40:47;;;;;;;11.38;2.80;;;;;;;16.73;56.39;97650.91;10379171;28;20117;-71
2023/10/11 23:46:13;;;;;;;15.32;4.20;;;;;;;16.76;56.32;97646.06;10378968;28;20208;-71
2023/10/11 23:51:41;;;;;;;8.30;2.90;;;;;;;16.73;56.31;97634.00;10379522;28;20117;-71
2023/10/11 23:57:04;;;;;;;10.95;3.45;;;;;;;16.74;56.62;97641.06;10377903;28;20169;-71
